Trementina, New Mexico
Current Conditions -  °F | °C
As of 11:53 AM on Friday 28 Nov 2014 (Local Time) from KLVS Reporting Station
Clear Clear  
Wind Chill: 68°   Ceiling: Unl
Heat Index: 68°   Visibility: 10mi
Dew Point:   Wind: 24mph
Humidity: 7%   Direction: 240°WSW
Pressure: 30.11"   Gusts: 32mph
Location:  35.46°N, 104.42°W
Report Text: KLVS 281853Z AUTO 24021G28KT 10SM CLR 20/M18 A3011 RMK AO2 PK WND 24028/1850 SLP116 T02001178
Loading
Personal Weather Stations






























Interactive Weather Map New forecast layout! Learn more

10-Day Weather Forecast

Advertisements
Track Severe Weather on mobile